Time;durP1;ratioP1;P1;durP2;ratioP2;P2;SDS_P1;SDS_P2;PMS_P1;PMS_P2;Temp;Humidity;BMP_temperature;BMP_pressure;BME280_temperature;BME280_humidity;BME280_pressure;Samples;Min_cycle;Max_cycle;Signal;HPM_P1;HPM_P2
2023/08/17 00:02:23;;;;;;;0.32;0.20;;;;;;;17.08;100.00;100434.00;7401074;19;20358;-55
2023/08/17 00:04:49;;;;;;;0.65;0.65;;;;;;;16.51;100.00;100437.84;7397113;19;20050;-55
2023/08/17 00:07:15;;;;;;;0.20;0.20;;;;;;;16.12;100.00;100431.16;7397046;19;20010;-55
2023/08/17 00:09:42;;;;;;;2.72;0.60;;;;;;;16.03;100.00;100436.16;7401038;19;20044;-55
2023/08/17 00:12:08;;;;;;;1.15;0.63;;;;;;;16.21;100.00;100435.81;7397362;19;20385;-55
2023/08/17 00:14:34;;;;;;;1.00;0.80;;;;;;;16.60;100.00;100422.78;7395874;19;20366;-55
2023/08/17 00:17:00;;;;;;;1.60;1.00;;;;;;;16.98;100.00;100436.25;7395958;19;20077;-55
2023/08/17 00:19:26;;;;;;;1.23;0.35;;;;;;;17.35;100.00;100424.84;7399698;19;20006;-54
2023/08/17 00:21:54;;;;;;;3.20;1.42;;;;;;;16.95;100.00;100428.06;7396497;19;20034;-55
2023/08/17 00:24:21;;;;;;;1.50;0.73;;;;;;;17.00;100.00;100430.91;7396762;19;20010;-55
2023/08/17 00:26:47;;;;;;;0.85;0.40;;;;;;;17.72;100.00;100433.13;7395568;19;20017;-54
2023/08/17 00:29:14;;;;;;;0.75;0.43;;;;;;;17.52;100.00;100434.13;7399329;19;20031;-55
2023/08/17 00:31:41;;;;;;;1.10;0.35;;;;;;;17.37;100.00;100428.72;7397398;19;20014;-55
2023/08/17 00:34:07;;;;;;;0.60;0.30;;;;;;;17.43;100.00;100437.19;7395442;19;20019;-55
2023/08/17 00:36:33;;;;;;;2.08;0.38;;;;;;;17.64;100.00;100430.06;7393436;19;20473;-55
2023/08/17 00:39:00;;;;;;;1.92;0.40;;;;;;;17.77;100.00;100433.16;7397838;19;20454;-55
2023/08/17 00:41:28;;;;;;;0.70;0.60;;;;;;;17.65;100.00;100434.41;7395159;19;20081;-55
2023/08/17 00:43:54;;;;;;;1.65;0.40;;;;;;;17.82;100.00;100432.38;7396870;19;20018;-55
2023/08/17 00:46:22;;;;;;;1.25;0.68;;;;;;;17.76;100.00;100430.88;7393805;19;20715;-55
2023/08/17 00:48:50;;;;;;;0.55;0.43;;;;;;;17.65;100.00;100433.66;7400490;19;20014;-55
2023/08/17 00:51:16;;;;;;;1.17;0.38;;;;;;;17.70;100.00;100433.66;7394445;19;20082;-55
2023/08/17 00:53:43;;;;;;;0.43;0.32;;;;;;;17.60;100.00;100440.81;7395991;19;20006;-54
2023/08/17 00:56:09;;;;;;;0.98;0.50;;;;;;;17.71;100.00;100435.22;7393842;19;20018;-55
2023/08/17 00:58:35;;;;;;;1.38;0.63;;;;;;;17.74;100.00;100437.00;7396588;19;20066;-55
2023/08/17 01:01:02;;;;;;;0.95;0.30;;;;;;;17.83;100.00;100431.09;7397735;19;20014;-55
2023/08/17 01:03:32;;;;;;;0.88;0.65;;;;;;;18.25;100.00;100427.25;7393541;19;20030;-55
2023/08/17 01:05:58;;;;;;;1.75;0.52;;;;;;;18.25;100.00;100429.28;7395298;19;20021;-55
2023/08/17 01:08:25;;;;;;;0.52;0.20;;;;;;;17.97;100.00;100434.97;7394798;19;20010;-55
2023/08/17 01:11:10;;;;;;;1.92;0.82;;;;;;;18.36;100.00;100429.28;7394630;19;20006;-55
2023/08/17 01:13:58;;;;;;;1.73;0.65;;;;;;;18.29;100.00;100429.81;7393639;19;20010;-55
2023/08/17 01:16:42;;;;;;;1.45;0.40;;;;;;;17.88;100.00;100424.72;7392082;19;20014;-55
2023/08/17 01:19:11;;;;;;;8.65;0.93;;;;;;;18.87;100.00;100423.78;7397907;19;20010;-55
2023/08/17 01:21:54;;;;;;;1.98;0.20;;;;;;;18.29;100.00;100422.13;7395699;19;20470;-55
2023/08/17 01:24:21;;;;;;;1.55;0.60;;;;;;;18.23;100.00;100418.53;7393074;19;20506;-55
2023/08/17 01:26:47;;;;;;;0.40;0.40;;;;;;;18.17;100.00;100424.19;7395468;19;20033;-55
2023/08/17 01:29:14;;;;;;;0.10;0.10;;;;;;;18.11;100.00;100414.97;7396507;19;20378;-55
2023/08/17 01:31:52;;;;;;;1.00;0.40;;;;;;;18.10;100.00;100413.41;7394800;19;20013;-55
2023/08/17 01:34:23;;;;;;;1.38;0.17;;;;;;;18.09;100.00;100414.72;7395955;19;20074;-55
2023/08/17 01:36:58;;;;;;;0.28;0.28;;;;;;;18.00;100.00;100420.59;7393477;19;20034;-55
2023/08/17 01:39:37;;;;;;;1.98;0.57;;;;;;;18.28;100.00;100408.53;7396730;19;20010;-55
2023/08/17 01:42:04;;;;;;;0.60;0.20;;;;;;;18.16;100.00;100408.56;7394414;19;20450;-55
2023/08/17 01:44:31;;;;;;;0.20;0.20;;;;;;;18.21;100.00;100411.88;7392266;19;20022;-55
2023/08/17 01:46:58;;;;;;;0.30;0.10;;;;;;;18.85;100.00;100417.13;7393137;19;20434;-55
2023/08/17 01:49:24;;;;;;;1.23;0.65;;;;;;;18.18;100.00;100411.63;7394684;19;20011;-55
2023/08/17 01:51:50;;;;;;;0.75;0.43;;;;;;;18.31;100.00;100407.50;7392619;19;20018;-55
2023/08/17 01:54:16;;;;;;;0.80;0.20;;;;;;;19.40;100.00;100413.28;7394311;19;20083;-55
2023/08/17 01:56:42;;;;;;;0.82;0.20;;;;;;;19.30;100.00;100409.94;7392352;19;20119;-55
2023/08/17 01:59:08;;;;;;;1.88;0.32;;;;;;;19.95;100.00;100409.25;7393983;19;20014;-55
2023/08/17 02:01:35;;;;;;;1.73;0.85;;;;;;;19.01;100.00;100413.47;7392100;19;20462;-54
2023/08/17 02:04:03;;;;;;;1.38;0.65;;;;;;;18.47;100.00;100415.19;7392969;19;20019;-55
2023/08/17 02:06:30;;;;;;;1.50;0.10;;;;;;;18.10;100.00;100416.22;7391743;19;20014;-55
2023/08/17 02:08:58;;;;;;;0.95;0.90;;;;;;;17.98;100.00;100420.34;7393386;19;20014;-55
2023/08/17 02:11:24;;;;;;;0.30;0.20;;;;;;;17.87;100.00;100420.34;7397299;19;20045;-55
2023/08/17 02:13:51;;;;;;;0.88;0.25;;;;;;;18.83;100.00;100419.69;7399714;19;20352;-55
2023/08/17 02:16:17;;;;;;;2.78;0.47;;;;;;;18.03;100.00;100422.41;7398730;19;20018;-55
2023/08/17 02:18:43;;;;;;;0.20;0.10;;;;;;;18.48;100.00;100428.00;7403067;19;20038;-55
2023/08/17 02:21:10;;;;;;;1.20;0.70;;;;;;;18.01;100.00;100421.38;7399660;19;20399;-55
2023/08/17 02:23:39;;;;;;;2.75;1.42;;;;;;;17.92;100.00;100428.03;7402085;19;20018;-55
2023/08/17 02:26:05;;;;;;;0.57;0.15;;;;;;;18.48;100.00;100422.34;7399690;19;20455;-55
2023/08/17 02:28:31;;;;;;;3.13;0.65;;;;;;;17.99;100.00;100427.53;7400783;19;20007;-56
2023/08/17 02:30:58;;;;;;;0.82;0.30;;;;;;;18.14;100.00;100425.22;7400931;19;20094;-55
2023/08/17 02:33:27;;;;;;;0.88;0.77;;;;;;;17.74;100.00;100427.75;7399157;19;20058;-55
2023/08/17 02:35:53;;;;;;;0.80;0.50;;;;;;;17.81;100.00;100428.03;7397101;19;20014;-55
2023/08/17 02:38:20;;;;;;;3.33;1.48;;;;;;;17.98;100.00;100425.22;7398327;19;20040;-55
2023/08/17 02:40:46;;;;;;;2.97;0.50;;;;;;;17.95;100.00;100424.19;7398936;19;20358;-55
2023/08/17 02:43:12;;;;;;;0.85;0.68;;;;;;;17.93;100.00;100421.09;7400845;19;20019;-55
2023/08/17 02:45:38;;;;;;;1.55;0.17;;;;;;;17.92;100.00;100422.41;7398521;19;20014;-55
2023/08/17 02:48:04;;;;;;;0.80;0.47;;;;;;;17.90;100.00;100430.59;7401475;19;20402;-55
2023/08/17 02:50:30;;;;;;;3.63;0.65;;;;;;;17.91;100.00;100426.50;7402841;19;20015;-55
2023/08/17 02:52:57;;;;;;;1.75;0.57;;;;;;;17.97;100.00;100434.97;7398765;19;20045;-55
2023/08/17 02:55:23;;;;;;;5.00;0.43;;;;;;;18.01;100.00;100424.19;7397992;19;20024;-55
2023/08/17 02:57:49;;;;;;;0.88;0.45;;;;;;;18.06;100.00;100424.19;7398623;19;20017;-55
2023/08/17 03:00:15;;;;;;;1.35;0.50;;;;;;;18.09;100.00;100420.34;7402992;19;20043;-55
2023/08/17 03:02:41;;;;;;;3.15;1.42;;;;;;;18.67;100.00;100421.28;7398185;19;20014;-55
2023/08/17 03:05:07;;;;;;;1.23;0.77;;;;;;;18.64;100.00;100418.72;7399835;19;20066;-55
2023/08/17 03:07:33;;;;;;;2.55;0.95;;;;;;;19.42;100.00;100419.94;7398613;19;20019;-55
2023/08/17 03:10:00;;;;;;;4.47;0.57;;;;;;;18.32;100.00;100423.13;7401084;19;20534;-55
2023/08/17 03:12:26;;;;;;;1.77;0.75;;;;;;;19.04;100.00;100423.69;7398676;19;20026;-55
2023/08/17 03:14:52;;;;;;;2.40;1.20;;;;;;;18.17;100.00;100427.00;7397171;19;20010;-55
2023/08/17 03:17:19;;;;;;;1.67;0.30;;;;;;;17.91;100.00;100418.03;7394565;19;20486;-55
2023/08/17 03:19:45;;;;;;;5.07;1.52;;;;;;;18.07;100.00;100416.50;7397005;19;20014;-55
2023/08/17 03:22:11;;;;;;;4.25;1.00;;;;;;;18.06;100.00;100414.97;7401257;19;20014;-55
2023/08/17 03:24:37;;;;;;;3.30;1.05;;;;;;;17.81;100.00;100418.81;7398020;19;20408;-55
2023/08/17 03:27:03;;;;;;;0.70;0.60;;;;;;;17.83;100.00;100419.06;7397644;19;20454;-55
2023/08/17 03:29:29;;;;;;;4.25;1.13;;;;;;;17.95;100.00;100410.09;7397747;19;20506;-55
2023/08/17 03:31:56;;;;;;;1.48;0.73;;;;;;;17.92;100.00;100408.31;7401130;19;20021;-55
2023/08/17 03:34:22;;;;;;;6.63;1.15;;;;;;;17.80;100.00;100415.22;7396826;19;20013;-55
2023/08/17 03:36:50;;;;;;;6.13;0.57;;;;;;;17.73;100.00;100410.13;7394623;19;20355;-55
2023/08/17 03:39:16;;;;;;;0.82;0.52;;;;;;;17.59;100.00;100405.47;7400480;19;20014;-55
2023/08/17 03:41:42;;;;;;;2.70;0.90;;;;;;;18.14;100.00;100405.47;7396817;19;20016;-55
2023/08/17 03:44:09;;;;;;;4.03;1.25;;;;;;;18.37;100.00;100405.44;7402220;19;20105;-55
2023/08/17 03:46:35;;;;;;;1.35;0.30;;;;;;;17.94;100.00;100413.44;7397796;19;20014;-55
2023/08/17 03:49:02;;;;;;;1.60;0.22;;;;;;;17.99;100.00;100405.00;7401111;19;20074;-55
2023/08/17 03:51:28;;;;;;;2.55;0.60;;;;;;;17.92;100.00;100405.50;7396273;19;20006;-55
2023/08/17 03:53:55;;;;;;;2.28;0.60;;;;;;;17.73;100.00;100410.13;7396171;19;20462;-55
2023/08/17 03:56:22;;;;;;;0.60;0.40;;;;;;;17.48;100.00;100405.44;7398463;19;20037;-55
2023/08/17 03:58:49;;;;;;;1.15;0.40;;;;;;;17.42;100.00;100404.66;7396664;19;20010;-55
2023/08/17 04:01:16;;;;;;;2.15;1.10;;;;;;;17.60;100.00;100409.84;7396483;19;20041;-55
2023/08/17 04:03:42;;;;;;;1.73;0.68;;;;;;;16.90;100.00;100411.94;7396016;19;20006;-55
2023/08/17 04:06:10;;;;;;;3.38;0.52;;;;;;;17.13;100.00;100407.94;7395965;19;20025;-55
2023/08/17 04:08:37;;;;;;;9.13;0.73;;;;;;;17.32;100.00;100404.16;7400073;19;20078;-55
2023/08/17 04:11:04;;;;;;;1.55;0.93;;;;;;;17.21;100.00;100406.16;7396452;19;20018;-55
2023/08/17 04:13:31;;;;;;;3.28;0.88;;;;;;;17.31;100.00;100411.03;7395696;19;20041;-55
2023/08/17 04:15:57;;;;;;;1.25;0.90;;;;;;;17.35;100.00;100410.78;7393954;19;20011;-55
2023/08/17 04:18:23;;;;;;;2.20;0.75;;;;;;;17.34;100.00;100406.44;7395612;19;20466;-55
2023/08/17 04:20:50;;;;;;;2.92;0.65;;;;;;;17.48;100.00;100413.88;7400556;19;20343;-55
2023/08/17 04:23:16;;;;;;;1.25;0.52;;;;;;;17.51;100.00;100415.72;7396418;19;20011;-55
2023/08/17 04:25:43;;;;;;;4.25;1.23;;;;;;;17.52;100.00;100410.88;7395797;19;20031;-55
2023/08/17 04:28:10;;;;;;;2.35;0.73;;;;;;;17.55;100.00;100416.22;7395459;19;20015;-55
2023/08/17 04:30:37;;;;;;;1.75;0.68;;;;;;;17.59;100.00;100413.16;7399041;19;20027;-55
2023/08/17 04:33:05;;;;;;;1.38;0.88;;;;;;;17.56;100.00;100412.16;7395813;19;21014;-55
2023/08/17 04:35:31;;;;;;;7.60;1.77;;;;;;;17.57;100.00;100413.66;7391003;19;20014;-55
2023/08/17 04:37:57;;;;;;;5.88;0.65;;;;;;;17.57;100.00;100408.03;7392399;19;20021;-55
2023/08/17 04:40:23;;;;;;;0.93;0.80;;;;;;;17.59;100.00;100422.38;7394961;19;20011;-55
2023/08/17 04:42:49;;;;;;;1.65;0.90;;;;;;;17.61;100.00;100417.00;7391348;19;20023;-55
2023/08/17 04:45:15;;;;;;;1.60;1.02;;;;;;;17.66;100.00;100415.47;7390266;19;20581;-55
2023/08/17 04:47:54;;;;;;;1.58;0.50;;;;;;;17.65;100.00;100416.78;7393554;19;20011;-56
2023/08/17 04:50:20;;;;;;;3.58;1.13;;;;;;;17.66;100.00;100413.44;7395917;19;20033;-55
2023/08/17 04:52:47;;;;;;;2.05;1.40;;;;;;;17.59;100.00;100418.78;7394147;19;20011;-55
2023/08/17 04:55:14;;;;;;;6.20;1.48;;;;;;;17.54;100.00;100414.72;7393732;19;20014;-55
2023/08/17 04:57:42;;;;;;;2.85;0.75;;;;;;;17.50;100.00;100408.53;7393268;19;20022;-55
2023/08/17 05:00:11;;;;;;;1.67;1.38;;;;;;;17.48;100.00;100416.69;7395807;19;20037;-55
2023/08/17 05:02:37;;;;;;;2.72;1.10;;;;;;;17.43;100.00;100420.28;7395018;19;20058;-55
2023/08/17 05:05:05;;;;;;;5.57;1.38;;;;;;;17.44;100.00;100410.53;7392653;19;20074;-55
2023/08/17 05:07:31;;;;;;;2.10;1.08;;;;;;;17.43;100.00;100417.47;7394065;19;20006;-55
2023/08/17 05:09:58;;;;;;;1.95;0.90;;;;;;;17.02;100.00;100413.53;7395573;19;20015;-55
2023/08/17 05:12:24;;;;;;;1.95;1.33;;;;;;;17.29;100.00;100421.28;7393696;19;20006;-55
2023/08/17 05:14:51;;;;;;;3.35;1.15;;;;;;;17.33;100.00;100416.16;7394114;19;20014;-55
2023/08/17 05:17:18;;;;;;;5.40;1.77;;;;;;;17.44;100.00;100421.81;7391210;19;20042;-55
2023/08/17 05:19:44;;;;;;;2.05;1.10;;;;;;;17.35;100.00;100413.59;7395108;19;20014;-55
2023/08/17 05:22:11;;;;;;;3.20;1.00;;;;;;;17.38;100.00;100419.00;7394286;19;20006;-55
2023/08/17 05:24:38;;;;;;;2.97;0.95;;;;;;;17.49;100.00;100421.06;7395016;19;20027;-55
2023/08/17 05:27:06;;;;;;;2.08;1.05;;;;;;;17.46;100.00;100422.06;7393969;19;20023;-55
2023/08/17 05:29:33;;;;;;;0.40;0.38;;;;;;;17.97;100.00;100421.66;7394819;19;20023;-55
2023/08/17 05:32:00;;;;;;;4.53;2.05;;;;;;;17.69;100.00;100420.09;7394177;19;20021;-55
2023/08/17 05:34:27;;;;;;;3.22;1.10;;;;;;;17.63;100.00;100422.88;7392925;19;20017;-55
2023/08/17 05:36:54;;;;;;;4.15;1.27;;;;;;;18.00;100.00;100428.28;7391472;19;20363;-55
2023/08/17 05:39:20;;;;;;;3.15;1.75;;;;;;;17.85;100.00;100441.84;7397676;19;20044;-55
2023/08/17 05:41:46;;;;;;;0.80;0.45;;;;;;;17.99;100.00;100436.00;7392702;19;20010;-55
2023/08/17 05:44:14;;;;;;;3.63;1.40;;;;;;;18.06;100.00;100438.28;7393662;19;20018;-55
2023/08/17 05:46:40;;;;;;;4.90;1.17;;;;;;;18.20;100.00;100433.66;7392267;19;20017;-55
2023/08/17 05:49:07;;;;;;;1.15;0.80;;;;;;;18.30;100.00;100434.91;7397449;19;20010;-55
2023/08/17 05:51:33;;;;;;;1.80;1.60;;;;;;;18.37;100.00;100434.41;7394646;19;20007;-55
2023/08/17 05:53:59;;;;;;;2.08;0.52;;;;;;;18.51;100.00;100436.22;7392915;19;20011;-55
2023/08/17 05:56:25;;;;;;;1.65;1.38;;;;;;;18.57;100.00;100431.31;7390495;19;20018;-54
2023/08/17 05:58:51;;;;;;;0.75;0.65;;;;;;;18.70;100.00;100433.59;7392711;19;20018;-54
2023/08/17 06:01:18;;;;;;;3.63;0.65;;;;;;;18.66;100.00;100441.56;7398159;19;20034;-55
2023/08/17 06:03:44;;;;;;;1.55;0.80;;;;;;;18.70;100.00;100433.59;7393941;19;20011;-55
2023/08/17 06:06:10;;;;;;;3.88;1.00;;;;;;;18.94;100.00;100430.94;7393788;19;20034;-55
2023/08/17 06:08:39;;;;;;;5.05;1.52;;;;;;;19.02;100.00;100425.50;7392424;19;20014;-54
2023/08/17 06:11:06;;;;;;;1.75;0.65;;;;;;;18.74;100.00;100429.22;7394360;19;20403;-55
2023/08/17 06:13:32;;;;;;;2.72;1.45;;;;;;;18.90;100.00;100416.31;7392236;19;20020;-56
2023/08/17 06:15:58;;;;;;;3.88;0.93;;;;;;;19.84;100.00;100431.97;7392512;19;20015;-56
2023/08/17 06:18:24;;;;;;;0.52;0.50;;;;;;;19.50;100.00;100426.56;7396030;19;20347;-55
2023/08/17 06:20:53;;;;;;;4.05;0.80;;;;;;;20.00;100.00;100428.22;7396610;19;20474;-55
2023/08/17 06:23:20;;;;;;;2.97;0.40;;;;;;;19.77;100.00;100426.88;7393494;19;20011;-55
2023/08/17 06:25:46;;;;;;;6.32;0.93;;;;;;;19.52;100.00;100423.97;7393489;19;20021;-56
2023/08/17 06:28:12;;;;;;;14.85;0.95;;;;;;;19.50;100.00;100426.56;7397530;19;20027;-55
2023/08/17 06:30:38;;;;;;;1.85;0.40;;;;;;;19.60;100.00;100427.75;7397115;19;20022;-55
2023/08/17 06:33:04;;;;;;;6.13;1.35;;;;;;;19.70;100.00;100427.44;7397447;19;20018;-55
2023/08/17 06:35:30;;;;;;;0.95;0.47;;;;;;;19.82;100.00;100428.88;7391399;19;20027;-56
2023/08/17 06:37:57;;;;;;;1.80;0.73;;;;;;;19.93;100.00;100431.63;7393539;19;20470;-55
2023/08/17 06:40:24;;;;;;;2.25;0.45;;;;;;;19.72;100.00;100436.16;7394948;19;20026;-55
2023/08/17 06:42:52;;;;;;;1.58;0.68;;;;;;;20.24;100.00;100431.13;7392085;19;20438;-56
2023/08/17 06:45:18;;;;;;;2.97;0.80;;;;;;;20.38;100.00;100421.47;7391245;19;20336;-55
2023/08/17 06:47:45;;;;;;;0.73;0.50;;;;;;;20.14;100.00;100427.09;7394823;19;20022;-55
2023/08/17 06:50:11;;;;;;;3.78;1.40;;;;;;;20.11;100.00;100428.91;7394321;19;20007;-55
2023/08/17 06:52:39;;;;;;;7.05;1.83;;;;;;;20.12;100.00;100426.84;7392656;19;20032;-55
2023/08/17 06:55:05;;;;;;;2.10;0.88;;;;;;;20.32;100.00;100429.25;7392316;19;20362;-55
2023/08/17 06:57:31;;;;;;;1.05;0.38;;;;;;;20.36;100.00;100427.66;7390537;19;20027;-55
2023/08/17 06:59:57;;;;;;;0.88;0.63;;;;;;;20.46;100.00;100432.97;7400141;19;20027;-55
2023/08/17 07:02:23;;;;;;;1.98;1.02;;;;;;;20.37;100.00;100429.22;7399897;19;20010;-55
2023/08/17 07:04:49;;;;;;;2.88;0.60;;;;;;;20.63;100.00;100433.56;7400996;19;20419;-55
2023/08/17 07:07:16;;;;;;;0.77;0.47;;;;;;;20.71;100.00;100429.59;7399062;19;20019;-55
2023/08/17 07:09:42;;;;;;;4.45;0.88;;;;;;;20.88;100.00;100433.00;7404577;19;20015;-55
2023/08/17 07:12:08;;;;;;;0.47;0.45;;;;;;;21.18;100.00;100426.50;7399624;19;20010;-55
2023/08/17 07:14:34;;;;;;;1.35;0.38;;;;;;;21.29;100.00;100432.75;7398613;19;20343;-56
2023/08/17 07:17:00;;;;;;;2.80;0.25;;;;;;;21.11;100.00;100422.19;7396722;19;20103;-55
2023/08/17 07:19:27;;;;;;;0.98;0.40;;;;;;;21.47;100.00;100425.56;7399465;19;20010;-55
2023/08/17 07:21:53;;;;;;;8.55;1.52;;;;;;;21.42;100.00;100417.91;7399812;19;20010;-56
2023/08/17 07:24:19;;;;;;;0.88;0.63;;;;;;;21.84;100.00;100414.19;7397472;19;20025;-55
2023/08/17 07:26:46;;;;;;;2.40;0.73;;;;;;;21.63;100.00;100416.03;7398324;19;20462;-55
2023/08/17 07:29:12;;;;;;;0.70;0.40;;;;;;;21.76;100.00;100413.25;7399167;19;20042;-56
2023/08/17 07:31:39;;;;;;;0.55;0.20;;;;;;;23.22;100.00;100419.31;7400742;19;20018;-55
2023/08/17 07:34:05;;;;;;;0.57;0.30;;;;;;;23.86;100.00;100409.06;7396987;19;20021;-55
2023/08/17 07:36:32;;;;;;;1.95;0.35;;;;;;;24.09;100.00;100412.13;7396355;19;20007;-55
2023/08/17 07:38:59;;;;;;;4.05;0.20;;;;;;;24.51;100.00;100409.97;7401180;19;20017;-55
2023/08/17 07:41:26;;;;;;;0.85;0.60;;;;;;;24.00;100.00;100416.19;7400157;19;20014;-55
2023/08/17 07:43:52;;;;;;;1.00;0.68;;;;;;;24.21;100.00;100415.44;7396047;19;20042;-56
2023/08/17 07:46:18;;;;;;;0.85;0.35;;;;;;;24.23;100.00;100407.09;7395898;19;20017;-55
2023/08/17 07:48:44;;;;;;;1.58;0.38;;;;;;;23.93;100.00;100402.66;7398994;19;20025;-55
2023/08/17 07:51:10;;;;;;;0.28;0.13;;;;;;;22.92;100.00;100413.22;7401125;19;20400;-56
2023/08/17 07:53:36;;;;;;;0.55;0.55;;;;;;;23.46;100.00;100416.19;7396294;19;20017;-56
2023/08/17 07:56:03;;;;;;;1.17;0.38;;;;;;;22.64;100.00;100416.66;7395007;19;20021;-55
2023/08/17 07:58:29;;;;;;;4.43;0.40;;;;;;;22.29;100.00;100417.78;7395842;19;20018;-55
2023/08/17 08:00:55;;;;;;;0.85;0.50;;;;;;;22.06;100.00;100413.81;7400486;19;20045;-55
2023/08/17 08:03:22;;;;;;;1.05;0.57;;;;;;;22.21;100.00;100411.22;7396846;19;20011;-55
2023/08/17 08:05:48;;;;;;;1.05;0.22;;;;;;;22.71;100.00;100398.19;7395934;19;20073;-55
2023/08/17 08:08:14;;;;;;;1.27;0.57;;;;;;;22.68;100.00;100405.72;7397523;19;20014;-56
2023/08/17 08:10:41;;;;;;;1.52;0.32;;;;;;;22.91;100.00;100397.53;7397179;19;20019;-56
2023/08/17 08:13:07;;;;;;;2.00;0.35;;;;;;;22.89;100.00;100397.31;7397425;19;20015;-56
2023/08/17 08:15:33;;;;;;;0.32;0.10;;;;;;;23.12;100.00;100404.03;7395035;19;20018;-56
2023/08/17 08:18:00;;;;;;;0.38;0.13;;;;;;;23.65;100.00;100394.03;7396981;19;20458;-56
2023/08/17 08:20:26;;;;;;;0.98;0.10;;;;;;;22.95;100.00;100392.25;7398110;19;20446;-55
2023/08/17 08:22:52;;;;;;;0.65;0.40;;;;;;;22.87;100.00;100395.00;7396810;19;20518;-55
2023/08/17 08:25:18;;;;;;;1.25;0.25;;;;;;;22.82;100.00;100397.97;7396927;19;20462;-56
2023/08/17 08:27:44;;;;;;;3.30;1.00;;;;;;;23.61;100.00;100398.53;7396057;19;20074;-56
2023/08/17 08:30:11;;;;;;;0.35;0.15;;;;;;;23.23;100.00;100389.56;7397548;19;20481;-55
2023/08/17 08:32:37;;;;;;;0.30;0.10;;;;;;;25.11;100.00;100398.94;7394653;19;20014;-55
2023/08/17 08:35:04;;;;;;;1.10;0.60;;;;;;;25.75;100.00;100392.28;7396736;19;20017;-55
2023/08/17 08:37:30;;;;;;;0.40;0.30;;;;;;;25.71;100.00;100401.22;7395075;19;20010;-55
2023/08/17 08:39:56;;;;;;;0.50;0.50;;;;;;;25.68;100.00;100404.44;7397739;19;20066;-55
2023/08/17 08:42:24;;;;;;;0.45;0.45;;;;;;;25.89;100.00;100400.09;7396731;19;20023;-55
2023/08/17 08:44:51;;;;;;;0.90;0.40;;;;;;;26.81;100.00;100399.47;7394334;19;20014;-55
2023/08/17 08:47:18;;;;;;;3.83;0.73;;;;;;;25.04;100.00;100405.34;7396760;19;20015;-55
2023/08/17 08:50:04;;;;;;;0.20;0.20;;;;;;;27.74;100.00;100404.97;7396203;19;20014;-55
2023/08/17 08:52:44;;;;;;;0.63;0.38;;;;;;;27.04;100.00;100410.84;7394424;19;20018;-55
2023/08/17 08:55:17;;;;;;;0.13;0.13;;;;;;;24.83;100.00;100424.63;7395770;19;20070;-55
2023/08/17 08:57:44;;;;;;;0.88;0.40;;;;;;;25.74;100.00;100413.56;7393620;19;20074;-55
2023/08/17 09:00:12;;;;;;;0.52;0.20;;;;;;;24.47;100.00;100416.00;7395893;19;20467;-55
2023/08/17 09:02:38;;;;;;;0.40;0.20;;;;;;;24.45;100.00;100418.66;7395034;19;20014;-55
2023/08/17 09:05:06;;;;;;;0.30;0.30;;;;;;;24.49;100.00;100424.78;7394155;19;20078;-55
2023/08/17 09:07:32;;;;;;;0.60;0.13;;;;;;;24.92;100.00;100421.25;7394695;19;20014;-56
2023/08/17 09:09:59;;;;;;;1.23;0.43;;;;;;;24.53;100.00;100419.47;7393701;19;20007;-56
2023/08/17 09:12:25;;;;;;;2.45;0.45;;;;;;;24.91;100.00;100419.72;7396081;19;20023;-57
2023/08/17 09:14:52;;;;;;;0.93;0.30;;;;;;;24.74;100.00;100423.06;7394695;19;20388;-56
2023/08/17 09:17:25;;;;;;;0.40;0.25;;;;;;;24.23;100.00;100418.50;7392130;19;20485;-56
2023/08/17 09:19:52;;;;;;;0.70;0.28;;;;;;;24.57;100.00;100419.13;7395290;19;20007;-56
2023/08/17 09:22:26;;;;;;;3.50;0.73;;;;;;;25.24;100.00;100418.75;7390850;19;20093;-56
2023/08/17 09:24:52;;;;;;;0.22;0.10;;;;;;;25.26;100.00;100424.63;7393917;19;20066;-56
2023/08/17 09:27:18;;;;;;;0.85;0.30;;;;;;;25.47;100.00;100436.72;7395421;19;20015;-56
2023/08/17 09:29:45;;;;;;;0.32;0.20;;;;;;;25.95;100.00;100419.88;7395790;19;20489;-56
2023/08/17 09:32:15;;;;;;;0.30;0.30;;;;;;;26.40;100.00;100416.31;7394626;19;20010;-56
2023/08/17 09:34:43;;;;;;;3.87;0.30;;;;;;;27.13;100.00;100404.53;7394762;19;20070;-56
2023/08/17 09:37:12;;;;;;;0.30;0.30;;;;;;;27.24;100.00;100414.78;7393412;19;20011;-56
2023/08/17 09:39:38;;;;;;;0.50;0.50;;;;;;;28.13;100.00;100412.72;7397377;19;20396;-57
2023/08/17 09:42:05;;;;;;;0.25;0.20;;;;;;;27.23;100.00;100410.38;7395049;19;20015;-56
2023/08/17 09:44:33;;;;;;;0.22;0.10;;;;;;;27.79;100.00;100413.31;7395185;19;20014;-56
2023/08/17 09:46:59;;;;;;;0.28;0.00;;;;;;;27.46;100.00;100416.78;7393638;19;20014;-56
2023/08/17 09:49:25;;;;;;;2.75;0.45;;;;;;;28.68;100.00;100412.41;7391928;19;20006;-56
2023/08/17 09:51:54;;;;;;;0.75;0.75;;;;;;;28.30;100.00;100400.56;7397539;19;20034;-57
2023/08/17 09:54:23;;;;;;;0.85;0.30;;;;;;;27.96;100.00;100403.31;7394612;19;20033;-57
2023/08/17 09:56:53;;;;;;;0.28;0.10;;;;;;;38.93;72.04;100385.41;7392861;19;20038;-56
2023/08/17 09:59:19;;;;;;;2.63;0.43;;;;;;;31.96;76.38;100394.97;7392945;19;20034;-56
2023/08/17 10:01:50;;;;;;;2.80;1.15;;;;;;;28.49;100.00;100390.03;7395946;19;20018;-56
2023/08/17 10:04:22;;;;;;;0.50;0.22;;;;;;;27.56;100.00;100383.34;7392695;19;20487;-56
2023/08/17 10:06:54;;;;;;;0.30;0.10;;;;;;;27.21;100.00;100390.16;7392905;19;20010;-56
2023/08/17 10:09:25;;;;;;;2.05;0.17;;;;;;;26.72;100.00;100391.50;7395388;19;20034;-56
2023/08/17 10:11:55;;;;;;;3.92;0.47;;;;;;;26.91;100.00;100386.13;7394655;19;20091;-56
2023/08/17 10:14:27;;;;;;;0.47;0.45;;;;;;;26.95;100.00;100380.75;7394214;19;20028;-56
2023/08/17 10:17:00;;;;;;;1.75;0.22;;;;;;;40.21;64.55;100364.94;7391274;19;20114;-56
2023/08/17 10:19:40;;;;;;;0.13;0.10;;;;;;;45.62;39.64;100361.22;7393141;19;20010;-56
2023/08/17 10:22:12;;;;;;;0.47;0.10;;;;;;;45.71;36.27;100353.22;7392801;19;20470;-56
2023/08/17 10:24:40;;;;;;;0.30;0.20;;;;;;;46.86;32.52;100357.44;7391861;19;20029;-55
2023/08/17 10:27:07;;;;;;;0.75;0.47;;;;;;;44.30;33.16;100366.31;7393083;19;20018;-56
2023/08/17 10:29:35;;;;;;;0.77;0.45;;;;;;;38.32;43.30;100364.53;7393884;19;20031;-56
2023/08/17 10:32:02;;;;;;;0.63;0.20;;;;;;;27.98;82.46;100378.47;7394149;19;20007;-56
2023/08/17 10:34:29;;;;;;;0.60;0.20;;;;;;;36.78;66.34;100369.44;7400041;19;20007;-56
2023/08/17 10:36:57;;;;;;;1.08;0.28;;;;;;;26.89;96.28;100383.06;7396921;19;20338;-56
2023/08/17 10:39:27;;;;;;;1.27;0.30;;;;;;;26.02;100.00;100382.03;7403916;19;20021;-56
2023/08/17 10:41:54;;;;;;;7.30;1.08;;;;;;;26.82;100.00;100369.56;7404886;19;20044;-56
2023/08/17 10:44:42;;;;;;;4.88;0.32;;;;;;;26.90;100.00;100373.16;7398438;19;20010;-56
2023/08/17 10:47:25;;;;;;;3.40;0.13;;;;;;;27.99;100.00;100376.38;7398276;19;20007;-56
2023/08/17 10:49:55;;;;;;;0.40;0.20;;;;;;;28.70;100.00;100363.09;7398734;19;20355;-56
2023/08/17 10:52:26;;;;;;;0.13;0.10;;;;;;;32.40;89.19;100368.44;7400635;19;20014;-56
2023/08/17 10:54:54;;;;;;;0.10;0.10;;;;;;;28.51;87.44;100373.03;7398748;19;20007;-55
2023/08/17 10:57:32;;;;;;;0.75;0.10;;;;;;;26.36;100.00;100370.97;7397261;19;20014;-56
2023/08/17 11:00:16;;;;;;;0.08;0.00;;;;;;;26.17;100.00;100376.34;7397929;19;20018;-56
2023/08/17 11:03:01;;;;;;;0.28;0.10;;;;;;;26.25;100.00;100365.66;7399334;19;20015;-56
2023/08/17 11:05:46;;;;;;;1.40;0.17;;;;;;;27.15;100.00;100361.81;7399912;19;20021;-57
2023/08/17 11:08:23;;;;;;;4.65;0.30;;;;;;;28.08;100.00;100359.31;7399437;19;20039;-57
2023/08/17 11:11:09;;;;;;;0.10;0.00;;;;;;;28.58;98.64;100367.81;7400085;19;20369;-56
2023/08/17 11:13:38;;;;;;;0.10;0.00;;;;;;;28.57;96.35;100369.16;7397872;19;20090;-56
2023/08/17 11:16:05;;;;;;;0.10;0.10;;;;;;;29.42;92.05;100369.06;7397074;19;20022;-57
2023/08/17 11:18:33;;;;;;;0.35;0.03;;;;;;;30.70;85.41;100357.56;7397867;19;20066;-56
2023/08/17 11:21:00;;;;;;;0.82;0.63;;;;;;;30.94;83.85;100356.53;7399423;19;20347;-56